sensor_id;sensor_type;location;lat;lon;timestamp;P1;durP1;ratioP1;P2;durP2;ratioP2
3901;SDS011;1966;49.908;9.156;2022-12-29T00:05:18;4.43;;;3.03;;
3901;SDS011;1966;49.908;9.156;2022-12-29T00:10:38;3.37;;;2.60;;
3901;SDS011;1966;49.908;9.156;2022-12-29T00:15:59;2.93;;;2.30;;
3901;SDS011;1966;49.908;9.156;2022-12-29T00:21:19;2.63;;;2.43;;
3901;SDS011;1966;49.908;9.156;2022-12-29T00:26:58;2.93;;;2.03;;
3901;SDS011;1966;49.908;9.156;2022-12-29T00:32:36;2.83;;;2.57;;
3901;SDS011;1966;49.908;9.156;2022-12-29T00:38:13;3.27;;;2.30;;
3901;SDS011;1966;49.908;9.156;2022-12-29T00:43:51;2.00;;;1.87;;
3901;SDS011;1966;49.908;9.156;2022-12-29T00:49:29;4.43;;;2.00;;
3901;SDS011;1966;49.908;9.156;2022-12-29T00:54:49;2.90;;;2.13;;
3901;SDS011;1966;49.908;9.156;2022-12-29T01:00:09;3.53;;;2.50;;
3901;SDS011;1966;49.908;9.156;2022-12-29T01:05:30;2.00;;;1.80;;
3901;SDS011;1966;49.908;9.156;2022-12-29T01:10:57;2.23;;;1.90;;
3901;SDS011;1966;49.908;9.156;2022-12-29T01:16:17;2.90;;;2.17;;
3901;SDS011;1966;49.908;9.156;2022-12-29T01:21:38;2.13;;;2.00;;
3901;SDS011;1966;49.908;9.156;2022-12-29T01:26:57;3.67;;;2.10;;
3901;SDS011;1966;49.908;9.156;2022-12-29T01:32:17;2.30;;;2.10;;
3901;SDS011;1966;49.908;9.156;2022-12-29T01:37:38;2.00;;;1.87;;
3901;SDS011;1966;49.908;9.156;2022-12-29T01:42:57;2.23;;;2.03;;
3901;SDS011;1966;49.908;9.156;2022-12-29T01:48:17;3.17;;;2.43;;
3901;SDS011;1966;49.908;9.156;2022-12-29T01:53:38;2.33;;;2.13;;
3901;SDS011;1966;49.908;9.156;2022-12-29T01:58:59;3.40;;;2.20;;
3901;SDS011;1966;49.908;9.156;2022-12-29T02:04:20;2.40;;;2.20;;
3901;SDS011;1966;49.908;9.156;2022-12-29T02:09:42;2.33;;;2.10;;
3901;SDS011;1966;49.908;9.156;2022-12-29T02:15:03;3.53;;;2.57;;
3901;SDS011;1966;49.908;9.156;2022-12-29T02:20:37;1.70;;;1.60;;
3901;SDS011;1966;49.908;9.156;2022-12-29T02:26:10;2.20;;;2.00;;
3901;SDS011;1966;49.908;9.156;2022-12-29T02:31:35;2.43;;;1.60;;
3901;SDS011;1966;49.908;9.156;2022-12-29T02:37:00;2.00;;;1.90;;
3901;SDS011;1966;49.908;9.156;2022-12-29T02:42:23;1.90;;;1.77;;
3901;SDS011;1966;49.908;9.156;2022-12-29T02:47:46;2.13;;;1.90;;
3901;SDS011;1966;49.908;9.156;2022-12-29T02:53:08;2.17;;;1.83;;
3901;SDS011;1966;49.908;9.156;2022-12-29T02:58:29;1.73;;;1.63;;
3901;SDS011;1966;49.908;9.156;2022-12-29T03:03:54;1.90;;;1.80;;
3901;SDS011;1966;49.908;9.156;2022-12-29T03:09:18;1.70;;;1.60;;
3901;SDS011;1966;49.908;9.156;2022-12-29T03:14:45;1.63;;;1.53;;
3901;SDS011;1966;49.908;9.156;2022-12-29T03:20:26;4.20;;;1.90;;
3901;SDS011;1966;49.908;9.156;2022-12-29T03:25:48;2.10;;;1.90;;
3901;SDS011;1966;49.908;9.156;2022-12-29T03:31:10;2.97;;;1.90;;
3901;SDS011;1966;49.908;9.156;2022-12-29T03:36:33;2.33;;;1.80;;
3901;SDS011;1966;49.908;9.156;2022-12-29T03:41:54;1.87;;;1.77;;
3901;SDS011;1966;49.908;9.156;2022-12-29T03:47:17;1.90;;;1.80;;
3901;SDS011;1966;49.908;9.156;2022-12-29T03:52:38;2.47;;;1.83;;
3901;SDS011;1966;49.908;9.156;2022-12-29T03:57:57;2.30;;;1.80;;
3901;SDS011;1966;49.908;9.156;2022-12-29T04:03:17;2.40;;;1.90;;
3901;SDS011;1966;49.908;9.156;2022-12-29T04:08:38;1.77;;;1.67;;
3901;SDS011;1966;49.908;9.156;2022-12-29T04:13:57;2.50;;;2.07;;
3901;SDS011;1966;49.908;9.156;2022-12-29T04:19:17;2.30;;;2.03;;
3901;SDS011;1966;49.908;9.156;2022-12-29T04:24:38;2.20;;;2.10;;
3901;SDS011;1966;49.908;9.156;2022-12-29T04:29:57;2.70;;;2.10;;
3901;SDS011;1966;49.908;9.156;2022-12-29T04:35:17;2.23;;;1.70;;
3901;SDS011;1966;49.908;9.156;2022-12-29T04:40:39;1.73;;;1.60;;
3901;SDS011;1966;49.908;9.156;2022-12-29T04:45:58;2.50;;;1.80;;
3901;SDS011;1966;49.908;9.156;2022-12-29T04:51:18;1.90;;;1.80;;
3901;SDS011;1966;49.908;9.156;2022-12-29T04:56:39;1.80;;;1.70;;
3901;SDS011;1966;49.908;9.156;2022-12-29T05:01:58;2.40;;;1.97;;
3901;SDS011;1966;49.908;9.156;2022-12-29T05:07:18;2.60;;;2.13;;
3901;SDS011;1966;49.908;9.156;2022-12-29T05:12:39;2.03;;;1.83;;
3901;SDS011;1966;49.908;9.156;2022-12-29T05:17:59;2.67;;;2.47;;
3901;SDS011;1966;49.908;9.156;2022-12-29T05:23:18;2.40;;;2.00;;
3901;SDS011;1966;49.908;9.156;2022-12-29T05:28:39;2.33;;;1.80;;
3901;SDS011;1966;49.908;9.156;2022-12-29T05:33:59;2.33;;;2.00;;
3901;SDS011;1966;49.908;9.156;2022-12-29T05:39:18;1.97;;;1.77;;
3901;SDS011;1966;49.908;9.156;2022-12-29T05:44:39;2.17;;;1.80;;
3901;SDS011;1966;49.908;9.156;2022-12-29T05:49:59;3.73;;;2.13;;
3901;SDS011;1966;49.908;9.156;2022-12-29T05:55:18;1.77;;;1.67;;
3901;SDS011;1966;49.908;9.156;2022-12-29T06:00:39;1.80;;;1.70;;
3901;SDS011;1966;49.908;9.156;2022-12-29T06:05:59;3.83;;;2.50;;
3901;SDS011;1966;49.908;9.156;2022-12-29T06:11:19;1.90;;;1.70;;
3901;SDS011;1966;49.908;9.156;2022-12-29T06:16:39;3.43;;;1.87;;
3901;SDS011;1966;49.908;9.156;2022-12-29T06:22:00;4.03;;;1.90;;
3901;SDS011;1966;49.908;9.156;2022-12-29T06:27:20;2.50;;;1.87;;
3901;SDS011;1966;49.908;9.156;2022-12-29T06:32:41;3.33;;;1.97;;
3901;SDS011;1966;49.908;9.156;2022-12-29T06:38:00;2.57;;;1.90;;
3901;SDS011;1966;49.908;9.156;2022-12-29T06:43:20;1.77;;;1.67;;
3901;SDS011;1966;49.908;9.156;2022-12-29T06:48:41;2.47;;;2.10;;
3901;SDS011;1966;49.908;9.156;2022-12-29T06:54:01;3.13;;;2.27;;
3901;SDS011;1966;49.908;9.156;2022-12-29T06:59:21;3.00;;;2.40;;
3901;SDS011;1966;49.908;9.156;2022-12-29T07:04:41;2.83;;;2.53;;
3901;SDS011;1966;49.908;9.156;2022-12-29T07:10:01;3.10;;;2.60;;
3901;SDS011;1966;49.908;9.156;2022-12-29T07:15:21;2.27;;;2.10;;
3901;SDS011;1966;49.908;9.156;2022-12-29T07:20:42;3.23;;;2.50;;
3901;SDS011;1966;49.908;9.156;2022-12-29T07:26:02;2.90;;;2.50;;
3901;SDS011;1966;49.908;9.156;2022-12-29T07:31:22;8.50;;;3.17;;
3901;SDS011;1966;49.908;9.156;2022-12-29T07:36:43;6.33;;;3.43;;
3901;SDS011;1966;49.908;9.156;2022-12-29T07:42:03;6.80;;;4.97;;
3901;SDS011;1966;49.908;9.156;2022-12-29T07:47:22;2.47;;;2.27;;
3901;SDS011;1966;49.908;9.156;2022-12-29T07:52:43;2.57;;;2.17;;
3901;SDS011;1966;49.908;9.156;2022-12-29T07:58:05;2.67;;;2.27;;
3901;SDS011;1966;49.908;9.156;2022-12-29T08:03:24;5.87;;;2.30;;
3901;SDS011;1966;49.908;9.156;2022-12-29T08:08:46;1.90;;;1.80;;
3901;SDS011;1966;49.908;9.156;2022-12-29T08:14:05;6.00;;;2.47;;
3901;SDS011;1966;49.908;9.156;2022-12-29T08:19:25;2.67;;;2.47;;
3901;SDS011;1966;49.908;9.156;2022-12-29T08:24:46;3.60;;;2.30;;
3901;SDS011;1966;49.908;9.156;2022-12-29T08:30:07;4.27;;;2.50;;
3901;SDS011;1966;49.908;9.156;2022-12-29T08:35:27;2.30;;;2.20;;
3901;SDS011;1966;49.908;9.156;2022-12-29T08:40:48;2.50;;;2.30;;
3901;SDS011;1966;49.908;9.156;2022-12-29T08:46:07;6.30;;;2.33;;
3901;SDS011;1966;49.908;9.156;2022-12-29T08:51:27;2.80;;;2.50;;
3901;SDS011;1966;49.908;9.156;2022-12-29T08:56:48;6.27;;;2.70;;
3901;SDS011;1966;49.908;9.156;2022-12-29T09:02:09;3.70;;;2.30;;
3901;SDS011;1966;49.908;9.156;2022-12-29T09:07:29;2.40;;;2.20;;
3901;SDS011;1966;49.908;9.156;2022-12-29T09:12:50;2.73;;;2.20;;
3901;SDS011;1966;49.908;9.156;2022-12-29T09:18:10;3.30;;;2.80;;
3901;SDS011;1966;49.908;9.156;2022-12-29T09:23:30;5.20;;;3.50;;
3901;SDS011;1966;49.908;9.156;2022-12-29T09:28:51;3.60;;;2.50;;
3901;SDS011;1966;49.908;9.156;2022-12-29T09:34:11;3.57;;;2.53;;
3901;SDS011;1966;49.908;9.156;2022-12-29T09:39:30;5.33;;;2.83;;
3901;SDS011;1966;49.908;9.156;2022-12-29T09:44:59;2.60;;;2.40;;
3901;SDS011;1966;49.908;9.156;2022-12-29T09:50:21;2.50;;;2.30;;
3901;SDS011;1966;49.908;9.156;2022-12-29T09:55:42;2.50;;;2.30;;
3901;SDS011;1966;49.908;9.156;2022-12-29T10:01:06;2.80;;;2.50;;
3901;SDS011;1966;49.908;9.156;2022-12-29T10:06:27;2.90;;;2.57;;
3901;SDS011;1966;49.908;9.156;2022-12-29T10:11:54;2.50;;;2.23;;
3901;SDS011;1966;49.908;9.156;2022-12-29T10:17:21;3.73;;;2.40;;
3901;SDS011;1966;49.908;9.156;2022-12-29T10:22:47;3.83;;;2.90;;
3901;SDS011;1966;49.908;9.156;2022-12-29T10:28:16;3.67;;;2.70;;
3901;SDS011;1966;49.908;9.156;2022-12-29T10:33:39;3.80;;;2.63;;
3901;SDS011;1966;49.908;9.156;2022-12-29T10:39:02;2.60;;;2.40;;
3901;SDS011;1966;49.908;9.156;2022-12-29T10:44:23;5.90;;;2.20;;
3901;SDS011;1966;49.908;9.156;2022-12-29T10:49:48;18.20;;;2.67;;
3901;SDS011;1966;49.908;9.156;2022-12-29T10:55:11;3.07;;;2.67;;
3901;SDS011;1966;49.908;9.156;2022-12-29T11:00:32;2.50;;;2.17;;
3901;SDS011;1966;49.908;9.156;2022-12-29T11:05:55;3.63;;;2.30;;
3901;SDS011;1966;49.908;9.156;2022-12-29T11:11:22;2.53;;;2.30;;
3901;SDS011;1966;49.908;9.156;2022-12-29T11:16:41;1.63;;;1.50;;
3901;SDS011;1966;49.908;9.156;2022-12-29T11:22:13;2.10;;;2.00;;
3901;SDS011;1966;49.908;9.156;2022-12-29T11:27:33;2.73;;;1.90;;
3901;SDS011;1966;49.908;9.156;2022-12-29T11:32:53;1.87;;;1.70;;
3901;SDS011;1966;49.908;9.156;2022-12-29T11:38:18;1.60;;;1.50;;
3901;SDS011;1966;49.908;9.156;2022-12-29T11:43:40;1.90;;;1.80;;
3901;SDS011;1966;49.908;9.156;2022-12-29T11:49:00;1.50;;;1.40;;
3901;SDS011;1966;49.908;9.156;2022-12-29T11:54:23;1.50;;;1.40;;
3901;SDS011;1966;49.908;9.156;2022-12-29T11:59:43;1.57;;;1.20;;
3901;SDS011;1966;49.908;9.156;2022-12-29T12:05:13;1.60;;;1.50;;
3901;SDS011;1966;49.908;9.156;2022-12-29T12:10:36;2.27;;;1.47;;
3901;SDS011;1966;49.908;9.156;2022-12-29T12:16:02;1.60;;;1.50;;
3901;SDS011;1966;49.908;9.156;2022-12-29T12:21:24;1.70;;;1.60;;
3901;SDS011;1966;49.908;9.156;2022-12-29T12:26:49;1.77;;;1.67;;
3901;SDS011;1966;49.908;9.156;2022-12-29T12:32:14;1.80;;;1.70;;
3901;SDS011;1966;49.908;9.156;2022-12-29T12:37:38;2.23;;;2.03;;
3901;SDS011;1966;49.908;9.156;2022-12-29T12:43:16;2.60;;;2.23;;
3901;SDS011;1966;49.908;9.156;2022-12-29T12:48:47;2.57;;;2.37;;
3901;SDS011;1966;49.908;9.156;2022-12-29T12:54:16;4.83;;;2.10;;
3901;SDS011;1966;49.908;9.156;2022-12-29T12:59:45;1.80;;;1.70;;
3901;SDS011;1966;49.908;9.156;2022-12-29T13:05:24;5.03;;;1.90;;
3901;SDS011;1966;49.908;9.156;2022-12-29T13:10:46;2.13;;;1.80;;
3901;SDS011;1966;49.908;9.156;2022-12-29T13:16:12;1.87;;;1.60;;
3901;SDS011;1966;49.908;9.156;2022-12-29T13:21:37;2.10;;;1.90;;
3901;SDS011;1966;49.908;9.156;2022-12-29T13:27:03;2.10;;;1.90;;
3901;SDS011;1966;49.908;9.156;2022-12-29T13:32:32;2.30;;;2.03;;
3901;SDS011;1966;49.908;9.156;2022-12-29T13:37:55;6.60;;;2.87;;
3901;SDS011;1966;49.908;9.156;2022-12-29T13:43:16;3.07;;;2.30;;
3901;SDS011;1966;49.908;9.156;2022-12-29T13:48:40;2.63;;;2.30;;
3901;SDS011;1966;49.908;9.156;2022-12-29T13:54:05;5.47;;;2.90;;
3901;SDS011;1966;49.908;9.156;2022-12-29T13:59:32;4.23;;;3.03;;
3901;SDS011;1966;49.908;9.156;2022-12-29T14:05:01;2.90;;;2.60;;
3901;SDS011;1966;49.908;9.156;2022-12-29T14:10:26;2.40;;;2.10;;
3901;SDS011;1966;49.908;9.156;2022-12-29T14:15:50;2.63;;;2.40;;
3901;SDS011;1966;49.908;9.156;2022-12-29T14:21:17;8.20;;;2.87;;
3901;SDS011;1966;49.908;9.156;2022-12-29T14:26:38;3.27;;;2.37;;
3901;SDS011;1966;49.908;9.156;2022-12-29T14:31:57;4.80;;;2.70;;
3901;SDS011;1966;49.908;9.156;2022-12-29T14:37:25;3.30;;;2.47;;
3901;SDS011;1966;49.908;9.156;2022-12-29T14:42:45;2.50;;;2.10;;
3901;SDS011;1966;49.908;9.156;2022-12-29T14:48:15;2.53;;;2.00;;
3901;SDS011;1966;49.908;9.156;2022-12-29T14:53:42;3.00;;;2.20;;
3901;SDS011;1966;49.908;9.156;2022-12-29T14:59:02;4.17;;;1.60;;
3901;SDS011;1966;49.908;9.156;2022-12-29T15:04:25;2.23;;;2.03;;
3901;SDS011;1966;49.908;9.156;2022-12-29T15:09:46;3.70;;;1.93;;
3901;SDS011;1966;49.908;9.156;2022-12-29T15:15:17;2.40;;;2.00;;
3901;SDS011;1966;49.908;9.156;2022-12-29T15:20:36;1.90;;;1.80;;
3901;SDS011;1966;49.908;9.156;2022-12-29T15:25:58;4.93;;;2.37;;
3901;SDS011;1966;49.908;9.156;2022-12-29T15:31:19;3.77;;;2.37;;
3901;SDS011;1966;49.908;9.156;2022-12-29T15:36:39;4.03;;;2.80;;
3901;SDS011;1966;49.908;9.156;2022-12-29T15:42:02;4.90;;;3.70;;
3901;SDS011;1966;49.908;9.156;2022-12-29T15:47:24;10.87;;;5.30;;
3901;SDS011;1966;49.908;9.156;2022-12-29T15:52:44;7.97;;;4.60;;
3901;SDS011;1966;49.908;9.156;2022-12-29T15:58:15;8.80;;;4.77;;
3901;SDS011;1966;49.908;9.156;2022-12-29T16:03:36;7.43;;;3.67;;
3901;SDS011;1966;49.908;9.156;2022-12-29T16:08:57;8.70;;;4.47;;
3901;SDS011;1966;49.908;9.156;2022-12-29T16:14:19;9.53;;;4.27;;
3901;SDS011;1966;49.908;9.156;2022-12-29T16:19:39;5.10;;;3.40;;
3901;SDS011;1966;49.908;9.156;2022-12-29T16:25:00;9.13;;;4.30;;
3901;SDS011;1966;49.908;9.156;2022-12-29T16:30:23;4.10;;;2.63;;
3901;SDS011;1966;49.908;9.156;2022-12-29T16:35:44;7.30;;;4.80;;
3901;SDS011;1966;49.908;9.156;2022-12-29T16:41:04;10.33;;;4.40;;
3901;SDS011;1966;49.908;9.156;2022-12-29T16:46:26;6.10;;;4.87;;
3901;SDS011;1966;49.908;9.156;2022-12-29T16:51:46;8.73;;;4.80;;
3901;SDS011;1966;49.908;9.156;2022-12-29T16:57:06;10.30;;;4.80;;
3901;SDS011;1966;49.908;9.156;2022-12-29T17:02:28;7.37;;;4.80;;
3901;SDS011;1966;49.908;9.156;2022-12-29T17:07:48;5.40;;;3.63;;
3901;SDS011;1966;49.908;9.156;2022-12-29T17:13:09;5.63;;;3.90;;
3901;SDS011;1966;49.908;9.156;2022-12-29T17:18:30;5.30;;;4.00;;
3901;SDS011;1966;49.908;9.156;2022-12-29T17:23:50;6.63;;;4.70;;
3901;SDS011;1966;49.908;9.156;2022-12-29T17:29:10;7.73;;;4.83;;
3901;SDS011;1966;49.908;9.156;2022-12-29T17:34:36;11.00;;;4.00;;
3901;SDS011;1966;49.908;9.156;2022-12-29T17:39:56;8.70;;;3.47;;
3901;SDS011;1966;49.908;9.156;2022-12-29T17:45:16;5.00;;;3.90;;
3901;SDS011;1966;49.908;9.156;2022-12-29T17:50:37;6.53;;;4.43;;
3901;SDS011;1966;49.908;9.156;2022-12-29T17:55:57;7.10;;;3.63;;
3901;SDS011;1966;49.908;9.156;2022-12-29T18:01:16;8.27;;;4.77;;
3901;SDS011;1966;49.908;9.156;2022-12-29T18:06:40;5.97;;;4.30;;
3901;SDS011;1966;49.908;9.156;2022-12-29T18:12:00;11.13;;;4.00;;
3901;SDS011;1966;49.908;9.156;2022-12-29T18:17:19;7.90;;;3.30;;
3901;SDS011;1966;49.908;9.156;2022-12-29T18:22:40;8.17;;;3.30;;
3901;SDS011;1966;49.908;9.156;2022-12-29T18:28:00;6.70;;;4.67;;
3901;SDS011;1966;49.908;9.156;2022-12-29T18:33:20;8.30;;;4.90;;
3901;SDS011;1966;49.908;9.156;2022-12-29T18:38:41;11.10;;;4.90;;
3901;SDS011;1966;49.908;9.156;2022-12-29T18:44:01;8.27;;;5.70;;
3901;SDS011;1966;49.908;9.156;2022-12-29T18:49:20;9.07;;;4.77;;
3901;SDS011;1966;49.908;9.156;2022-12-29T18:54:42;8.17;;;4.53;;
3901;SDS011;1966;49.908;9.156;2022-12-29T19:00:02;5.73;;;3.40;;
3901;SDS011;1966;49.908;9.156;2022-12-29T19:05:23;5.40;;;2.33;;
3901;SDS011;1966;49.908;9.156;2022-12-29T19:10:45;4.13;;;2.60;;
3901;SDS011;1966;49.908;9.156;2022-12-29T19:16:05;5.70;;;3.10;;
3901;SDS011;1966;49.908;9.156;2022-12-29T19:21:26;7.80;;;4.10;;
3901;SDS011;1966;49.908;9.156;2022-12-29T19:26:46;5.83;;;3.10;;
3901;SDS011;1966;49.908;9.156;2022-12-29T19:32:06;7.70;;;3.10;;
3901;SDS011;1966;49.908;9.156;2022-12-29T19:37:26;5.00;;;2.17;;
3901;SDS011;1966;49.908;9.156;2022-12-29T19:42:47;6.10;;;3.50;;
3901;SDS011;1966;49.908;9.156;2022-12-29T19:48:07;5.00;;;3.00;;
3901;SDS011;1966;49.908;9.156;2022-12-29T19:53:26;7.63;;;3.10;;
3901;SDS011;1966;49.908;9.156;2022-12-29T19:58:47;5.00;;;3.27;;
3901;SDS011;1966;49.908;9.156;2022-12-29T20:04:07;6.80;;;2.70;;
3901;SDS011;1966;49.908;9.156;2022-12-29T20:09:27;7.03;;;2.93;;
3901;SDS011;1966;49.908;9.156;2022-12-29T20:14:48;5.87;;;2.77;;
3901;SDS011;1966;49.908;9.156;2022-12-29T20:20:08;7.60;;;2.70;;
3901;SDS011;1966;49.908;9.156;2022-12-29T20:25:28;6.20;;;2.60;;
3901;SDS011;1966;49.908;9.156;2022-12-29T20:30:56;4.10;;;2.63;;
3901;SDS011;1966;49.908;9.156;2022-12-29T20:36:17;3.93;;;2.60;;
3901;SDS011;1966;49.908;9.156;2022-12-29T20:41:37;4.87;;;2.50;;
3901;SDS011;1966;49.908;9.156;2022-12-29T20:46:58;5.47;;;2.60;;
3901;SDS011;1966;49.908;9.156;2022-12-29T20:52:18;8.80;;;3.67;;
3901;SDS011;1966;49.908;9.156;2022-12-29T20:57:38;5.67;;;3.50;;
3901;SDS011;1966;49.908;9.156;2022-12-29T21:02:59;6.07;;;3.87;;
3901;SDS011;1966;49.908;9.156;2022-12-29T21:08:19;10.97;;;4.23;;
3901;SDS011;1966;49.908;9.156;2022-12-29T21:13:39;6.80;;;4.80;;
3901;SDS011;1966;49.908;9.156;2022-12-29T21:19:00;5.73;;;3.47;;
3901;SDS011;1966;49.908;9.156;2022-12-29T21:24:19;7.90;;;3.47;;
3901;SDS011;1966;49.908;9.156;2022-12-29T21:29:39;4.73;;;2.80;;
3901;SDS011;1966;49.908;9.156;2022-12-29T21:35:00;4.93;;;3.10;;
3901;SDS011;1966;49.908;9.156;2022-12-29T21:40:20;3.23;;;2.93;;
3901;SDS011;1966;49.908;9.156;2022-12-29T21:45:39;4.93;;;2.93;;
3901;SDS011;1966;49.908;9.156;2022-12-29T21:51:06;7.30;;;2.93;;
3901;SDS011;1966;49.908;9.156;2022-12-29T21:56:43;7.03;;;4.20;;
3901;SDS011;1966;49.908;9.156;2022-12-29T22:02:09;7.13;;;3.00;;
3901;SDS011;1966;49.908;9.156;2022-12-29T22:07:50;10.73;;;2.83;;
3901;SDS011;1966;49.908;9.156;2022-12-29T22:13:29;6.03;;;3.10;;
3901;SDS011;1966;49.908;9.156;2022-12-29T22:18:49;5.30;;;2.77;;
3901;SDS011;1966;49.908;9.156;2022-12-29T22:24:10;6.57;;;2.90;;
3901;SDS011;1966;49.908;9.156;2022-12-29T22:29:29;3.87;;;2.80;;
3901;SDS011;1966;49.908;9.156;2022-12-29T22:34:49;4.50;;;2.47;;
3901;SDS011;1966;49.908;9.156;2022-12-29T22:40:10;7.10;;;2.77;;
3901;SDS011;1966;49.908;9.156;2022-12-29T22:45:30;6.20;;;2.53;;
3901;SDS011;1966;49.908;9.156;2022-12-29T22:50:52;4.03;;;2.97;;
3901;SDS011;1966;49.908;9.156;2022-12-29T22:56:13;7.50;;;3.10;;
3901;SDS011;1966;49.908;9.156;2022-12-29T23:01:33;3.97;;;2.50;;
3901;SDS011;1966;49.908;9.156;2022-12-29T23:06:53;5.53;;;2.93;;
3901;SDS011;1966;49.908;9.156;2022-12-29T23:12:14;4.13;;;2.23;;
3901;SDS011;1966;49.908;9.156;2022-12-29T23:17:34;5.80;;;3.17;;
3901;SDS011;1966;49.908;9.156;2022-12-29T23:22:53;5.47;;;2.50;;
3901;SDS011;1966;49.908;9.156;2022-12-29T23:28:14;4.70;;;3.03;;
3901;SDS011;1966;49.908;9.156;2022-12-29T23:33:34;4.80;;;2.63;;
3901;SDS011;1966;49.908;9.156;2022-12-29T23:38:54;4.27;;;2.40;;
3901;SDS011;1966;49.908;9.156;2022-12-29T23:44:15;4.93;;;2.53;;
3901;SDS011;1966;49.908;9.156;2022-12-29T23:49:34;5.00;;;2.03;;
3901;SDS011;1966;49.908;9.156;2022-12-29T23:54:54;5.60;;;2.47;;
